Aeroporto :
LOGIN :

Iscrizione | Disclaimer

   EN    FR    IT 

 










Sommario :    VFR   VFR Marginale   IFR   IFR Intensivo   IFR Molto Intensivo
Visibilità : 
Base nubi : 
>= 8 km
>= 3000ft
5 / 8 km
1000 / 3000 ft
1500m / 5 km
500 / 1000 ft
800 / 1500m
200 / 500 ft
< 800m
< 200 ft
Simboli :   Temporali  Nebbia  Neve Forte  Precipitazioni Forti  Vento > 20 kt
SIGMETs :   Varie  Temporali  Ghiacco  Turbolenza  Onda orograficha  Ceneri Vulcaniche






- Altitudine del aeroporto : 443 ft
- Codice IATA : SQQ


EYSA - Siauliai

ULTIMO METAR :
  • 270850Z 30009KT CAVOK 18/06 Q1028 BLU NOSIG

METARs OBSOLETI :
  • 270820Z 32006KT 280V350 CAVOK 17/07 Q1028 BLU NOSIG
  • 270750Z 33007KT 290V360 CAVOK 17/07 Q1029 BLU NOSIG
  • 270720Z 32007KT 290V350 CAVOK 16/07 Q1029 BLU NOSIG
  • 270650Z 34005KT 300V030 CAVOK 15/07 Q1029 BLU NOSIG

TAF TAF EYSA
Valido dal 27 a 09 ore il 27 a 18 ore UTC


270811Z 2709/2718 33012KT 9000 SCT045



MetMap, La meteo Aeronautica in un colpo d'occhio ! - Copyright ORBIFLY Dicembre 2007 - Disclaimer

ORBIFLY MET'MAP TEAM :

Programmazione e sviluppo : Alexandra Zaïnal
Concezione : Baudouin d'Aumeries
Aiuto per la programmazione : Marc-Olivier Méhu
Supporto tecnico e logistico : Manuel Goepfert
Aiuto per la traduzione : Arnaldo La Scala

Contatto : metmap@orbifly.com




FONTI E CREDITI :

   NOAA